sensor_id;sensor_type;location;lat;lon;timestamp;P1;durP1;ratioP1;P2;durP2;ratioP2
5882;SDS011;2967;51.488;6.618;2022-08-11T00:02:09;10.67;;;2.70;;
5882;SDS011;2967;51.488;6.618;2022-08-11T00:07:42;7.90;;;2.93;;
5882;SDS011;2967;51.488;6.618;2022-08-11T00:13:05;5.17;;;2.50;;
5882;SDS011;2967;51.488;6.618;2022-08-11T00:18:37;6.27;;;2.70;;
5882;SDS011;2967;51.488;6.618;2022-08-11T00:24:03;8.40;;;2.53;;
5882;SDS011;2967;51.488;6.618;2022-08-11T00:29:26;4.97;;;2.73;;
5882;SDS011;2967;51.488;6.618;2022-08-11T00:34:50;10.23;;;2.83;;
5882;SDS011;2967;51.488;6.618;2022-08-11T00:40:38;4.70;;;2.73;;
5882;SDS011;2967;51.488;6.618;2022-08-11T00:46:13;5.73;;;2.73;;
5882;SDS011;2967;51.488;6.618;2022-08-11T00:51:54;8.10;;;2.70;;
5882;SDS011;2967;51.488;6.618;2022-08-11T01:03:31;11.90;;;3.00;;
5882;SDS011;2967;51.488;6.618;2022-08-11T01:09:23;7.83;;;2.30;;
5882;SDS011;2967;51.488;6.618;2022-08-11T01:45:22;4.80;;;2.40;;
5882;SDS011;2967;51.488;6.618;2022-08-11T01:51:00;8.10;;;2.87;;
5882;SDS011;2967;51.488;6.618;2022-08-11T01:56:42;8.00;;;2.20;;
5882;SDS011;2967;51.488;6.618;2022-08-11T02:02:21;5.23;;;2.10;;
5882;SDS011;2967;51.488;6.618;2022-08-11T02:08:07;6.93;;;3.97;;
5882;SDS011;2967;51.488;6.618;2022-08-11T02:13:41;3.93;;;2.50;;
5882;SDS011;2967;51.488;6.618;2022-08-11T02:19:22;7.37;;;5.43;;
5882;SDS011;2967;51.488;6.618;2022-08-11T02:25:10;7.30;;;3.10;;
5882;SDS011;2967;51.488;6.618;2022-08-11T02:52:05;3.93;;;2.30;;
5882;SDS011;2967;51.488;6.618;2022-08-11T02:57:36;3.27;;;2.40;;
5882;SDS011;2967;51.488;6.618;2022-08-11T03:03:09;4.63;;;2.40;;
5882;SDS011;2967;51.488;6.618;2022-08-11T03:08:49;4.80;;;2.50;;
5882;SDS011;2967;51.488;6.618;2022-08-11T03:14:18;2.77;;;2.30;;
5882;SDS011;2967;51.488;6.618;2022-08-11T03:20:14;3.13;;;2.20;;
5882;SDS011;2967;51.488;6.618;2022-08-11T03:26:02;7.83;;;2.73;;
5882;SDS011;2967;51.488;6.618;2022-08-11T03:31:33;6.73;;;2.50;;
5882;SDS011;2967;51.488;6.618;2022-08-11T03:37:10;6.50;;;2.40;;
5882;SDS011;2967;51.488;6.618;2022-08-11T03:43:10;3.57;;;2.50;;
5882;SDS011;2967;51.488;6.618;2022-08-11T03:48:48;3.70;;;2.60;;
5882;SDS011;2967;51.488;6.618;2022-08-11T03:54:25;7.00;;;2.57;;
5882;SDS011;2967;51.488;6.618;2022-08-11T04:00:04;2.83;;;2.50;;
5882;SDS011;2967;51.488;6.618;2022-08-11T04:11:44;5.07;;;2.27;;
5882;SDS011;2967;51.488;6.618;2022-08-11T04:17:35;4.50;;;2.67;;
5882;SDS011;2967;51.488;6.618;2022-08-11T04:23:30;14.40;;;2.83;;
5882;SDS011;2967;51.488;6.618;2022-08-11T04:29:39;7.67;;;2.40;;
5882;SDS011;2967;51.488;6.618;2022-08-11T04:35:31;7.20;;;2.87;;
5882;SDS011;2967;51.488;6.618;2022-08-11T05:14:04;4.63;;;2.73;;
5882;SDS011;2967;51.488;6.618;2022-08-11T05:20:08;5.30;;;2.70;;
5882;SDS011;2967;51.488;6.618;2022-08-11T05:25:51;6.00;;;3.30;;
5882;SDS011;2967;51.488;6.618;2022-08-11T05:31:58;4.83;;;3.07;;
5882;SDS011;2967;51.488;6.618;2022-08-11T05:37:41;7.30;;;3.83;;
5882;SDS011;2967;51.488;6.618;2022-08-11T05:43:22;5.63;;;3.07;;
5882;SDS011;2967;51.488;6.618;2022-08-11T05:49:25;7.97;;;3.37;;
5882;SDS011;2967;51.488;6.618;2022-08-11T05:55:09;8.60;;;4.00;;
5882;SDS011;2967;51.488;6.618;2022-08-11T06:00:50;8.10;;;4.00;;
5882;SDS011;2967;51.488;6.618;2022-08-11T06:06:15;5.03;;;3.60;;
5882;SDS011;2967;51.488;6.618;2022-08-11T06:11:40;7.57;;;3.37;;
5882;SDS011;2967;51.488;6.618;2022-08-11T06:17:05;13.53;;;4.00;;
5882;SDS011;2967;51.488;6.618;2022-08-11T06:22:30;18.43;;;3.90;;
5882;SDS011;2967;51.488;6.618;2022-08-11T06:27:54;8.93;;;4.83;;
5882;SDS011;2967;51.488;6.618;2022-08-11T06:33:20;21.00;;;6.13;;
5882;SDS011;2967;51.488;6.618;2022-08-11T06:38:57;19.17;;;4.80;;
5882;SDS011;2967;51.488;6.618;2022-08-11T06:44:29;23.47;;;5.07;;
5882;SDS011;2967;51.488;6.618;2022-08-11T06:50:01;9.70;;;4.50;;
5882;SDS011;2967;51.488;6.618;2022-08-11T06:55:47;15.97;;;4.70;;
5882;SDS011;2967;51.488;6.618;2022-08-11T07:01:32;17.70;;;5.07;;
5882;SDS011;2967;51.488;6.618;2022-08-11T07:07:22;15.33;;;5.40;;
5882;SDS011;2967;51.488;6.618;2022-08-11T07:13:47;14.57;;;5.60;;
5882;SDS011;2967;51.488;6.618;2022-08-11T07:19:31;14.37;;;5.63;;
5882;SDS011;2967;51.488;6.618;2022-08-11T07:25:17;18.40;;;5.50;;
5882;SDS011;2967;51.488;6.618;2022-08-11T07:31:02;10.30;;;4.47;;
5882;SDS011;2967;51.488;6.618;2022-08-11T07:36:28;13.20;;;4.67;;
5882;SDS011;2967;51.488;6.618;2022-08-11T07:41:54;18.90;;;5.00;;
5882;SDS011;2967;51.488;6.618;2022-08-11T07:47:20;10.13;;;4.10;;
5882;SDS011;2967;51.488;6.618;2022-08-11T07:53:02;14.53;;;4.80;;
5882;SDS011;2967;51.488;6.618;2022-08-11T07:58:26;12.60;;;4.73;;
5882;SDS011;2967;51.488;6.618;2022-08-11T08:04:16;13.00;;;4.87;;
5882;SDS011;2967;51.488;6.618;2022-08-11T08:09:57;10.53;;;4.73;;
5882;SDS011;2967;51.488;6.618;2022-08-11T08:15:39;17.07;;;4.87;;
5882;SDS011;2967;51.488;6.618;2022-08-11T08:21:21;5.33;;;2.90;;
5882;SDS011;2967;51.488;6.618;2022-08-11T08:26:44;7.10;;;3.90;;
5882;SDS011;2967;51.488;6.618;2022-08-11T08:32:23;15.50;;;4.20;;
5882;SDS011;2967;51.488;6.618;2022-08-11T08:37:49;14.40;;;4.10;;
5882;SDS011;2967;51.488;6.618;2022-08-11T08:43:14;5.50;;;3.53;;
5882;SDS011;2967;51.488;6.618;2022-08-11T08:48:39;6.73;;;4.50;;
5882;SDS011;2967;51.488;6.618;2022-08-11T08:54:07;7.80;;;4.57;;
5882;SDS011;2967;51.488;6.618;2022-08-11T08:59:32;19.23;;;5.60;;
5882;SDS011;2967;51.488;6.618;2022-08-11T09:05:10;11.47;;;5.00;;
5882;SDS011;2967;51.488;6.618;2022-08-11T09:10:35;7.20;;;4.27;;
5882;SDS011;2967;51.488;6.618;2022-08-11T09:15:59;8.77;;;4.20;;
5882;SDS011;2967;51.488;6.618;2022-08-11T09:21:23;6.47;;;3.90;;
5882;SDS011;2967;51.488;6.618;2022-08-11T09:27:07;3.53;;;3.23;;
5882;SDS011;2967;51.488;6.618;2022-08-11T09:32:32;5.93;;;3.40;;
5882;SDS011;2967;51.488;6.618;2022-08-11T09:37:56;4.90;;;3.33;;
5882;SDS011;2967;51.488;6.618;2022-08-11T09:43:39;16.50;;;3.70;;
5882;SDS011;2967;51.488;6.618;2022-08-11T09:49:28;4.63;;;3.20;;
5882;SDS011;2967;51.488;6.618;2022-08-11T09:54:52;8.50;;;3.37;;
5882;SDS011;2967;51.488;6.618;2022-08-11T10:00:17;4.90;;;3.47;;
5882;SDS011;2967;51.488;6.618;2022-08-11T10:05:43;4.13;;;3.53;;
5882;SDS011;2967;51.488;6.618;2022-08-11T10:11:28;8.40;;;3.63;;
5882;SDS011;2967;51.488;6.618;2022-08-11T10:16:53;9.33;;;3.30;;
5882;SDS011;2967;51.488;6.618;2022-08-11T10:22:17;9.20;;;3.43;;
5882;SDS011;2967;51.488;6.618;2022-08-11T10:27:58;7.93;;;4.80;;
5882;SDS011;2967;51.488;6.618;2022-08-11T10:33:45;10.07;;;4.20;;
5882;SDS011;2967;51.488;6.618;2022-08-11T10:39:22;6.07;;;4.40;;
5882;SDS011;2967;51.488;6.618;2022-08-11T10:44:49;6.77;;;3.80;;
5882;SDS011;2967;51.488;6.618;2022-08-11T10:50:15;3.67;;;3.20;;
5882;SDS011;2967;51.488;6.618;2022-08-11T10:55:56;8.87;;;5.20;;
5882;SDS011;2967;51.488;6.618;2022-08-11T11:01:40;5.00;;;4.23;;
5882;SDS011;2967;51.488;6.618;2022-08-11T11:07:07;4.67;;;3.73;;
5882;SDS011;2967;51.488;6.618;2022-08-11T11:12:38;3.80;;;3.17;;
5882;SDS011;2967;51.488;6.618;2022-08-11T11:18:21;6.17;;;3.33;;
5882;SDS011;2967;51.488;6.618;2022-08-11T11:23:48;5.30;;;3.30;;
5882;SDS011;2967;51.488;6.618;2022-08-11T11:29:30;5.03;;;3.70;;
5882;SDS011;2967;51.488;6.618;2022-08-11T11:35:16;6.20;;;3.77;;
5882;SDS011;2967;51.488;6.618;2022-08-11T11:40:49;5.20;;;2.77;;
5882;SDS011;2967;51.488;6.618;2022-08-11T11:46:27;5.10;;;3.30;;
5882;SDS011;2967;51.488;6.618;2022-08-11T11:51:59;6.37;;;3.40;;
5882;SDS011;2967;51.488;6.618;2022-08-11T11:57:24;5.10;;;2.80;;
5882;SDS011;2967;51.488;6.618;2022-08-11T12:03:20;3.07;;;2.77;;
5882;SDS011;2967;51.488;6.618;2022-08-11T12:08:43;4.77;;;3.30;;
5882;SDS011;2967;51.488;6.618;2022-08-11T12:14:12;7.93;;;3.27;;
5882;SDS011;2967;51.488;6.618;2022-08-11T12:19:38;4.83;;;3.03;;
5882;SDS011;2967;51.488;6.618;2022-08-11T12:25:09;3.50;;;3.20;;
5882;SDS011;2967;51.488;6.618;2022-08-11T12:30:51;5.83;;;2.63;;
5882;SDS011;2967;51.488;6.618;2022-08-11T12:36:15;4.20;;;2.90;;
5882;SDS011;2967;51.488;6.618;2022-08-11T12:41:39;6.60;;;2.73;;
5882;SDS011;2967;51.488;6.618;2022-08-11T12:47:32;4.90;;;3.27;;
5882;SDS011;2967;51.488;6.618;2022-08-11T12:53:35;6.70;;;4.13;;
5882;SDS011;2967;51.488;6.618;2022-08-11T12:59:04;6.67;;;3.50;;
5882;SDS011;2967;51.488;6.618;2022-08-11T13:04:48;8.70;;;3.40;;
5882;SDS011;2967;51.488;6.618;2022-08-11T13:10:16;10.20;;;7.87;;
